Time;durP1;ratioP1;P1;durP2;ratioP2;P2;SDS_P1;SDS_P2;PMS_P1;PMS_P2;Temp;Humidity;BMP_temperature;BMP_pressure;BME280_temperature;BME280_humidity;BME280_pressure;Samples;Min_cycle;Max_cycle;Signal;HPM_P1;HPM_P2
2022/07/12 00:02:05;;;;;;;;;;;;;;;19.30;57.85;101360.09;4963620;28;7014;-81
2022/07/12 00:04:31;;;;;;;;;;;;;;;19.28;58.12;101367.84;4934519;28;7178;-81
2022/07/12 00:06:57;;;;;;;;;;;;;;;19.24;58.05;101366.00;4963810;28;7222;-81
2022/07/12 00:09:22;;;;;;;;;;;;;;;19.18;57.62;101371.03;4963231;28;9063;-81
2022/07/12 00:11:48;;;;;;;;;;;;;;;19.11;57.65;101369.97;4931216;28;7238;-81
2022/07/12 00:14:14;;;;;;;;;;;;;;;19.07;57.58;101372.44;4974778;28;7981;-81
2022/07/12 00:16:39;;;;;;;;;;;;;;;19.00;57.69;101361.88;4960639;28;7192;-81
2022/07/12 00:19:05;;;;;;;;;;;;;;;18.97;57.82;101368.66;4933527;28;7006;-81
2022/07/12 00:21:31;;;;;;;;;;;;;;;18.93;57.59;101369.41;4976651;28;7171;-81
2022/07/12 00:23:56;;;;;;;;;;;;;;;18.91;57.21;101365.91;4931867;28;6939;-81
2022/07/12 00:26:22;;;;;;;;;;;;;;;18.87;57.43;101370.13;4973780;28;7190;-81
2022/07/12 00:28:48;;;;;;;;;;;;;;;18.83;57.47;101358.75;4949062;28;7205;-81
2022/07/12 00:31:14;;;;;;;;;;;;;;;18.81;57.56;101372.53;4958391;28;7211;-81
2022/07/12 00:33:40;;;;;;;;;;;;;;;18.77;57.64;101361.16;4958912;28;7436;-81
2022/07/12 00:36:06;;;;;;;;;;;;;;;18.74;57.61;101369.75;4959354;28;6961;-81
2022/07/12 00:38:32;;;;;;;;;;;;;;;18.71;57.83;101363.59;4973506;28;7058;-81
2022/07/12 00:40:58;;;;;;;;;;;;;;;18.67;57.74;101361.72;4934662;28;8432;-81
2022/07/12 00:43:23;;;;;;;;;;;;;;;18.64;58.03;101356.44;4973858;28;7183;-81
2022/07/12 00:45:49;;;;;;;;;;;;;;;18.62;57.81;101346.00;4951283;28;7207;-81
2022/07/12 00:48:17;;;;;;;;;;;;;;;18.60;58.00;101337.31;4953605;28;8177;-81
2022/07/12 00:50:46;;;;;;;;;;;;;;;18.58;58.24;101333.78;4943983;28;6781;-81
2022/07/12 00:53:14;;;;;;;;;;;;;;;18.56;58.51;101335.47;4965878;28;6976;-81
2022/07/12 00:55:40;;;;;;;;;;;;;;;18.52;58.31;101333.59;4961601;28;6971;-81
2022/07/12 00:58:06;;;;;;;;;;;;;;;18.51;58.44;101329.22;4957944;28;7024;-81
2022/07/12 01:00:32;;;;;;;;;;;;;;;18.46;57.95;101332.59;4944535;28;7256;-81
2022/07/12 01:03:02;;;;;;;;;;;;;;;18.42;58.36;101333.31;4962368;28;6950;-81
2022/07/12 01:05:30;;;;;;;;;;;;;;;18.41;58.79;101328.97;4945852;28;6982;-81
2022/07/12 01:07:56;;;;;;;;;;;;;;;18.38;58.42;101325.38;4956681;28;6952;-81
2022/07/12 01:10:22;;;;;;;;;;;;;;;18.38;58.50;101322.78;4934505;28;7174;-82
2022/07/12 01:12:49;;;;;;;;;;;;;;;18.35;58.21;101320.09;4940653;28;7219;-81
2022/07/12 01:15:16;;;;;;;;;;;;;;;18.33;58.16;101322.66;4930275;28;8372;-81
2022/07/12 01:17:45;;;;;;;;;;;;;;;18.30;58.17;101319.97;4958213;28;8449;-81
2022/07/12 01:20:11;;;;;;;;;;;;;;;18.28;58.41;101324.25;4954056;28;7068;-81
2022/07/12 01:22:41;;;;;;;;;;;;;;;18.25;58.27;101321.53;4972650;28;7138;-81
2022/07/12 01:25:07;;;;;;;;;;;;;;;18.19;58.55;101322.22;4946574;28;6981;-81
2022/07/12 01:27:34;;;;;;;;;;;;;;;18.16;58.39;101333.41;4931804;28;8472;-81
2022/07/12 01:30:04;;;;;;;;;;;;;;;18.11;58.71;101321.13;4962921;28;7330;-81
2022/07/12 01:32:30;;;;;;;;;;;;;;;18.08;58.85;101324.50;4935761;28;7009;-81
2022/07/12 01:34:59;;;;;;;;;;;;;;;18.06;58.97;101317.50;4943064;28;7278;-81
2022/07/12 01:37:32;;;;;;;;;;;;;;;18.03;59.03;101324.34;4960480;28;8408;-81
2022/07/12 01:39:59;;;;;;;;;;;;;;;18.02;59.11;101329.44;4943330;28;7202;-81
2022/07/12 01:42:28;;;;;;;;;;;;;;;18.01;59.11;101327.69;4951286;28;7286;-81
2022/07/12 01:44:54;;;;;;;;;;;;;;;17.98;59.49;101335.38;4932562;28;7249;-81
2022/07/12 01:47:24;;;;;;;;;;;;;;;17.93;59.19;101335.22;4961867;28;7063;-81
2022/07/12 01:49:50;;;;;;;;;;;;;;;17.89;59.39;101333.34;4953456;28;7165;-81
2022/07/12 01:52:17;;;;;;;;;;;;;;;17.88;59.39;101336.78;4931666;28;6994;-81
2022/07/12 01:54:43;;;;;;;;;;;;;;;17.85;59.11;101345.31;4963903;28;8742;-81
2022/07/12 01:57:10;;;;;;;;;;;;;;;17.85;59.18;101341.88;4966685;28;8060;-81
2022/07/12 01:59:36;;;;;;;;;;;;;;;17.84;58.72;101346.16;4944800;28;7000;-81
2022/07/12 02:02:03;;;;;;;;;;;;;;;17.83;59.00;101348.72;4941070;28;7227;-81
2022/07/12 02:04:29;;;;;;;;;;;;;;;17.82;59.07;101347.81;4963129;28;6985;-81
2022/07/12 02:06:56;;;;;;;;;;;;;;;17.84;59.31;101348.75;4975262;28;6943;-82
2022/07/12 02:09:22;;;;;;;;;;;;;;;17.83;58.65;101352.19;4961152;28;8462;-82
2022/07/12 02:11:49;;;;;;;;;;;;;;;17.84;58.44;101347.88;4951435;28;8428;-82
2022/07/12 02:14:14;;;;;;;;;;;;;;;17.81;58.53;101337.38;4978885;28;7024;-81
2022/07/12 02:16:41;;;;;;;;;;;;;;;17.79;58.77;101339.97;4973676;28;6964;-81
2022/07/12 02:19:08;;;;;;;;;;;;;;;17.78;58.87;101338.19;4980485;28;7234;-81
2022/07/12 02:21:34;;;;;;;;;;;;;;;17.77;58.63;101336.44;4971191;28;7222;-81
2022/07/12 02:24:01;;;;;;;;;;;;;;;17.76;59.21;101339.84;4937002;28;8424;-81
2022/07/12 02:26:27;;;;;;;;;;;;;;;17.76;59.20;101342.41;4949686;28;7011;-83
2022/07/12 02:28:53;;;;;;;;;;;;;;;17.76;59.06;101350.19;4949562;28;7057;-83
2022/07/12 02:31:18;;;;;;;;;;;;;;;17.73;59.16;101345.81;4965019;28;8402;-83
2022/07/12 02:33:44;;;;;;;;;;;;;;;17.72;58.78;101351.84;4944045;28;7192;-83
2022/07/12 02:36:10;;;;;;;;;;;;;;;17.72;58.94;101353.53;4931194;28;8349;-83
2022/07/12 02:38:35;;;;;;;;;;;;;;;17.73;59.23;101350.09;4934412;28;7282;-83
2022/07/12 02:41:01;;;;;;;;;;;;;;;17.71;58.53;101351.78;4968635;28;8379;-83
2022/07/12 02:43:29;;;;;;;;;;;;;;;17.70;58.93;101345.69;4943850;28;7018;-83
2022/07/12 02:46:04;;;;;;;;;;;;;;;17.69;58.74;101348.25;4976216;28;6984;-83
2022/07/12 02:48:31;;;;;;;;;;;;;;;17.66;58.65;101346.44;4964869;28;8447;-83
2022/07/12 02:50:56;;;;;;;;;;;;;;;17.62;58.71;101353.22;4934753;28;6973;-83
2022/07/12 02:53:22;;;;;;;;;;;;;;;17.59;58.65;101350.53;4975391;28;6939;-83
2022/07/12 02:55:48;;;;;;;;;;;;;;;17.58;58.74;101353.97;4962986;28;8460;-83
2022/07/12 02:58:15;;;;;;;;;;;;;;;17.55;58.74;101359.00;4963467;28;8668;-83
2022/07/12 03:00:43;;;;;;;;;;;;;;;17.52;59.02;101355.44;4973853;28;7010;-82
2022/07/12 03:03:08;;;;;;;;;;;;;;;17.47;58.30;101357.84;4975859;28;7040;-82
2022/07/12 03:05:35;;;;;;;;;;;;;;;17.43;58.54;101358.59;4966086;28;7197;-82
2022/07/12 03:08:03;;;;;;;;;;;;;;;17.39;58.75;101354.16;4945076;28;7012;-81
2022/07/12 03:10:28;;;;;;;;;;;;;;;17.35;58.36;101355.75;4935746;28;6921;-82
2022/07/12 03:12:54;;;;;;;;;;;;;;;17.32;58.82;101355.63;4952787;28;6936;-82
2022/07/12 03:15:20;;;;;;;;;;;;;;;17.30;58.94;101354.69;4948864;28;7251;-82
2022/07/12 03:17:45;;;;;;;;;;;;;;;17.29;58.79;101358.09;4971769;28;8370;-82
2022/07/12 03:20:14;;;;;;;;;;;;;;;17.26;58.58;101355.41;4975266;28;7151;-82
2022/07/12 03:22:48;;;;;;;;;;;;;;;17.24;58.63;101352.75;4974484;28;7212;-81
2022/07/12 03:25:15;;;;;;;;;;;;;;;17.20;58.59;101367.31;4963009;28;8590;-82
2022/07/12 03:27:40;;;;;;;;;;;;;;;17.16;58.82;101356.78;4959270;28;7307;-82
2022/07/12 03:30:08;;;;;;;;;;;;;;;17.11;58.36;101358.34;4965101;28;8391;-82
2022/07/12 03:32:34;;;;;;;;;;;;;;;17.06;58.64;101366.81;4973089;28;8614;-81
2022/07/12 03:34:59;;;;;;;;;;;;;;;17.04;58.78;101362.38;4976313;28;8430;-81
2022/07/12 03:37:25;;;;;;;;;;;;;;;17.03;58.75;101363.22;4931976;28;6948;-82
2022/07/12 03:39:51;;;;;;;;;;;;;;;17.01;58.53;101362.28;4963251;28;8368;-82
2022/07/12 03:42:16;;;;;;;;;;;;;;;16.99;58.95;101364.78;4956712;28;7169;-81
2022/07/12 03:44:42;;;;;;;;;;;;;;;16.98;58.50;101370.78;4937837;28;8383;-80
2022/07/12 03:47:08;;;;;;;;;;;;;;;16.94;59.05;101372.38;4960334;28;7210;-79
2022/07/12 03:49:33;;;;;;;;;;;;;;;16.93;59.25;101375.78;4947375;28;8008;-80
2022/07/12 03:51:59;;;;;;;;;;;;;;;16.93;59.37;101378.38;4974034;28;6780;-80
2022/07/12 03:54:24;;;;;;;;;;;;;;;16.94;59.32;101376.69;4933201;28;8637;-80
2022/07/12 03:59:34;;;;;;;;;;;;;;;16.92;58.75;101383.53;4962724;28;6800;-81
2022/07/12 04:02:02;;;;;;;;;;;;;;;16.92;58.89;101386.97;4947170;28;8810;-80
2022/07/12 04:04:28;;;;;;;;;;;;;;;16.92;59.15;101386.09;4956977;28;6986;-80
2022/07/12 04:06:54;;;;;;;;;;;;;;;16.92;59.25;101386.97;4956573;28;6986;-80
2022/07/12 04:09:20;;;;;;;;;;;;;;;16.93;59.24;101377.50;4958969;28;6979;-79
2022/07/12 04:11:46;;;;;;;;;;;;;;;16.98;59.53;101385.44;4960251;28;7299;-80
2022/07/12 04:14:12;;;;;;;;;;;;;;;17.00;59.75;101394.16;4963036;28;7024;-80
2022/07/12 04:16:37;;;;;;;;;;;;;;;17.03;59.57;101389.13;4957970;28;8834;-81
2022/07/12 04:19:04;;;;;;;;;;;;;;;17.07;59.84;101383.25;4935777;28;8379;-80
2022/07/12 04:21:31;;;;;;;;;;;;;;;17.10;59.47;101390.25;4970569;28;7230;-80
2022/07/12 04:23:57;;;;;;;;;;;;;;;17.14;60.03;101398.19;4941856;28;6796;-80
2022/07/12 04:26:23;;;;;;;;;;;;;;;17.26;60.87;101395.13;4931821;28;7017;-79
2022/07/12 04:28:48;;;;;;;;;;;;;;;17.52;62.32;101390.03;4973179;28;7176;-80
2022/07/12 04:31:14;;;;;;;;;;;;;;;17.87;62.53;101389.47;4960447;28;8488;-80
2022/07/12 04:33:40;;;;;;;;;;;;;;;18.23;62.40;101386.38;4979147;28;7010;-80
2022/07/12 04:36:05;;;;;;;;;;;;;;;18.57;61.86;101374.44;4960682;28;7187;-80
2022/07/12 04:38:31;;;;;;;;;;;;;;;18.91;61.84;101379.75;4945400;28;8293;-79
2022/07/12 04:40:57;;;;;;;;;;;;;;;19.18;61.04;101371.03;4968797;28;6974;-80
2022/07/12 04:43:25;;;;;;;;;;;;;;;19.40;60.92;101366.41;4973439;28;6953;-81
2022/07/12 04:45:51;;;;;;;;;;;;;;;19.57;60.59;101364.28;4948463;28;7137;-81
2022/07/12 04:48:17;;;;;;;;;;;;;;;19.75;60.66;101368.16;4959594;28;7238;-81
2022/07/12 04:50:43;;;;;;;;;;;;;;;19.90;60.16;101358.16;4937674;28;6970;-81
2022/07/12 04:53:10;;;;;;;;;;;;;;;20.09;60.22;101358.63;4937321;28;6972;-81
2022/07/12 04:55:36;;;;;;;;;;;;;;;20.28;59.85;101359.97;4958832;28;7188;-80
2022/07/12 04:58:02;;;;;;;;;;;;;;;20.48;59.55;101360.41;4966758;28;7290;-81
2022/07/12 05:00:28;;;;;;;;;;;;;;;20.68;59.07;101354.75;4974668;28;6852;-81
2022/07/12 05:02:54;;;;;;;;;;;;;;;20.88;58.57;101363.03;4979899;28;6960;-80
2022/07/12 05:05:20;;;;;;;;;;;;;;;21.02;58.39;101363.31;4975562;28;6854;-81
2022/07/12 05:07:45;;;;;;;;;;;;;;;21.20;58.58;101354.09;4964466;28;6964;-81
2022/07/12 05:10:11;;;;;;;;;;;;;;;21.44;58.89;101358.00;4943097;28;6772;-78
2022/07/12 05:12:37;;;;;;;;;;;;;;;21.76;58.69;101363.81;4949349;28;6776;-78
2022/07/12 05:15:05;;;;;;;;;;;;;;;22.10;58.87;101366.09;4972910;28;6948;-79
2022/07/12 05:17:30;;;;;;;;;;;;;;;;;;4957367;28;6975;-80
2022/07/12 05:19:56;;;;;;;;;;;;;;;22.78;56.85;101370.56;4959478;28;8201;-79
2022/07/12 05:22:22;;;;;;;;;;;;;;;23.07;55.95;101376.13;4954388;28;7441;-80
2022/07/12 05:24:48;;;;;;;;;;;;;;;23.31;55.99;101374.69;4976749;28;7860;-80
2022/07/12 05:27:14;;;;;;;;;;;;;;;23.52;55.45;101379.28;4975558;28;6852;-80
2022/07/12 05:29:40;;;;;;;;;;;;;;;23.74;54.64;101370.72;4958994;28;6796;-79
2022/07/12 05:32:06;;;;;;;;;;;;;;;23.97;54.50;101382.28;4942717;28;7339;-80
2022/07/12 05:34:32;;;;;;;;;;;;;;;24.20;54.00;101381.59;4966964;28;7055;-80
2022/07/12 05:36:58;;;;;;;;;;;;;;;24.41;53.14;101387.84;4969244;28;6991;-80
2022/07/12 05:39:24;;;;;;;;;;;;;;;24.59;52.61;101379.22;4943508;28;7203;-80
2022/07/12 05:41:49;;;;;;;;;;;;;;;24.76;52.91;101376.69;4970656;28;8398;-80
2022/07/12 05:44:17;;;;;;;;;;;;;;;24.98;52.36;101375.94;4959426;28;7171;-80
2022/07/12 05:46:43;;;;;;;;;;;;;;;25.21;52.03;101369.00;4955519;28;7387;-80
2022/07/12 05:49:08;;;;;;;;;;;;;;;25.51;52.31;101355.97;4964194;28;7492;-80
2022/07/12 05:54:19;;;;;;;;;;;;;;;26.20;51.02;101365.59;4959790;28;9024;-78
2022/07/12 05:56:44;;;;;;;;;;;;;;;26.47;50.39;101366.41;4960922;28;7007;-79
2022/07/12 05:59:10;;;;;;;;;;;;;;;26.65;49.17;101377.72;4969864;28;6919;-79
2022/07/12 06:01:35;;;;;;;;;;;;;;;26.65;48.23;101376.84;4973203;28;8226;-79
2022/07/12 06:04:01;;;;;;;;;;;;;;;26.53;47.58;101375.13;4971710;28;7465;-79
2022/07/12 06:06:27;;;;;;;;;;;;;;;26.36;47.36;101383.06;4948948;28;7167;-78
2022/07/12 06:08:53;;;;;;;;;;;;;;;26.16;46.84;101397.09;4949573;28;7081;-78
2022/07/12 06:11:19;;;;;;;;;;;;;;;25.96;47.21;101387.47;4945577;28;6765;-78
2022/07/12 06:13:44;;;;;;;;;;;;;;;25.85;47.07;101402.34;4931471;28;6930;-78
2022/07/12 06:16:11;;;;;;;;;;;;;;;25.72;47.05;101404.09;4951590;28;6796;-79
2022/07/12 06:18:37;;;;;;;;;;;;;;;25.65;47.14;101409.31;4980045;28;7256;-79
2022/07/12 06:21:03;;;;;;;;;;;;;;;25.56;47.75;101406.69;4964925;28;7228;-79
2022/07/12 06:23:29;;;;;;;;;;;;;;;25.50;47.51;101414.56;4952164;28;6993;-79
2022/07/12 06:25:55;;;;;;;;;;;;;;;25.41;47.35;101411.91;4966755;28;7131;-79
2022/07/12 06:28:21;;;;;;;;;;;;;;;25.33;47.49;101420.63;4978246;28;6944;-79
2022/07/12 06:30:46;;;;;;;;;;;;;;;25.27;47.78;101424.97;4969009;28;7141;-79
2022/07/12 06:33:12;;;;;;;;;;;;;;;25.24;48.18;101420.59;4951545;28;6784;-79
2022/07/12 06:35:38;;;;;;;;;;;;;;;25.23;48.60;101424.09;4954405;28;7046;-79
2022/07/12 06:38:03;;;;;;;;;;;;;;;25.29;48.76;101429.34;4952142;28;6955;-79
2022/07/12 06:40:29;;;;;;;;;;;;;;;25.35;48.52;101426.75;4962631;28;6776;-79
2022/07/12 06:42:55;;;;;;;;;;;;;;;25.45;48.47;101429.38;4977573;28;6768;-79
2022/07/12 06:45:20;;;;;;;;;;;;;;;25.54;48.43;101429.44;4979025;28;7221;-79
2022/07/12 06:47:46;;;;;;;;;;;;;;;25.62;47.97;101430.34;4948476;28;7247;-79
2022/07/12 06:50:11;;;;;;;;;;;;;;;25.70;48.27;101434.72;4961618;28;6800;-79
2022/07/12 06:52:37;;;;;;;;;;;;;;;25.76;47.88;101430.34;4973087;28;6780;-78
2022/07/12 06:55:03;;;;;;;;;;;;;;;25.83;47.60;101430.34;4966478;28;7052;-79
2022/07/12 06:57:33;;;;;;;;;;;;;;;25.92;47.94;101431.22;4966150;28;7024;-78
2022/07/12 06:59:59;;;;;;;;;;;;;;;26.04;47.84;101433.00;4964835;28;6982;-78
2022/07/12 07:02:25;;;;;;;;;;;;;;;26.20;47.85;101426.00;4945402;28;7144;-78
2022/07/12 07:04:51;;;;;;;;;;;;;;;26.41;47.93;101424.22;4943591;28;6931;-78
2022/07/12 07:07:17;;;;;;;;;;;;;;;26.70;47.57;101425.91;4966148;28;7051;-78
2022/07/12 07:09:43;;;;;;;;;;;;;;;26.98;46.63;101430.22;4962859;28;7189;-78
2022/07/12 07:12:09;;;;;;;;;;;;;;;27.25;46.06;101423.97;4958110;28;6772;-78
2022/07/12 07:14:35;;;;;;;;;;;;;;;27.53;45.56;101428.16;4948982;28;6781;-78
2022/07/12 07:17:01;;;;;;;;;;;;;;;27.85;45.48;101430.59;4957074;28;6792;-78
2022/07/12 07:19:26;;;;;;;;;;;;;;;28.26;44.58;101423.25;4958575;28;6768;-78
2022/07/12 07:21:55;;;;;;;;;;;;;;;28.71;44.20;101431.59;4960587;28;6890;-78
2022/07/12 07:24:22;;;;;;;;;;;;;;;29.09;43.29;101425.00;4928782;28;6953;-78
2022/07/12 07:26:48;;;;;;;;;;;;;;;29.38;42.75;101429.00;4973143;28;6980;-78
2022/07/12 07:31:58;;;;;;;;;;;;;;;29.93;41.98;101427.28;4944003;28;7137;-78
2022/07/12 07:34:25;;;;;;;;;;;;;;;30.27;41.66;101425.84;4958540;28;7023;-78
2022/07/12 07:36:51;;;;;;;;;;;;;;;30.53;40.07;101421.81;4939825;28;7890;-78
2022/07/12 07:39:17;;;;;;;;;;;;;;;30.72;40.00;101421.50;4942337;28;7480;-78
2022/07/12 07:41:43;;;;;;;;;;;;;;;30.87;39.41;101429.09;4975706;28;7182;-78
2022/07/12 07:44:09;;;;;;;;;;;;;;;31.00;38.63;101436.75;4935777;28;7035;-78
2022/07/12 07:46:35;;;;;;;;;;;;;;;31.13;38.23;101438.25;4955925;28;6965;-78
2022/07/12 07:49:01;;;;;;;;;;;;;;;31.23;37.34;101433.66;4959140;28;6965;-79
2022/07/12 07:51:27;;;;;;;;;;;;;;;31.30;37.39;101431.75;4939715;28;6975;-78
2022/07/12 07:53:52;;;;;;;;;;;;;;;31.39;37.56;101436.84;4974225;28;7379;-78
2022/07/12 07:56:18;;;;;;;;;;;;;;;31.59;37.10;101440.78;4942135;28;6963;-78
2022/07/12 07:58:44;;;;;;;;;;;;;;;31.75;36.64;101437.75;4944614;28;7439;-78
2022/07/12 08:01:09;;;;;;;;;;;;;;;31.92;36.51;101440.88;4943885;28;6776;-78
2022/07/12 08:03:35;;;;;;;;;;;;;;;32.08;36.39;101437.84;4969422;28;6856;-78
2022/07/12 08:06:00;;;;;;;;;;;;;;;32.20;35.50;101437.53;4950208;28;8133;-77
2022/07/12 08:08:28;;;;;;;;;;;;;;;32.31;35.26;101434.59;4970029;28;6772;-78
2022/07/12 08:10:54;;;;;;;;;;;;;;;32.49;35.03;101433.25;4955650;28;6989;-77
2022/07/12 08:13:20;;;;;;;;;;;;;;;32.66;34.81;101448.66;4944333;28;6869;-78
2022/07/12 08:15:47;;;;;;;;;;;;;;;32.86;34.43;101441.06;4959917;28;6776;-78
2022/07/12 08:18:13;;;;;;;;;;;;;;;33.09;33.93;101438.59;4965330;28;7307;-78
2022/07/12 08:20:39;;;;;;;;;;;;;;;33.28;33.15;101438.03;4976090;28;8280;-79
2022/07/12 08:23:04;;;;;;;;;;;;;;;33.44;33.12;101438.41;4955974;28;6959;-78
2022/07/12 08:25:30;;;;;;;;;;;;;;;33.66;32.60;101428.00;4942666;28;6924;-78
2022/07/12 08:27:56;;;;;;;;;;;;;;;33.90;32.31;101430.75;4959357;28;8511;-77
2022/07/12 08:30:22;;;;;;;;;;;;;;;34.18;32.14;101423.63;4973389;28;6791;-78
2022/07/12 08:32:48;;;;;;;;;;;;;;;34.43;31.18;101422.72;4964094;28;6987;-78
2022/07/12 08:35:14;;;;;;;;;;;;;;;34.57;31.21;101420.47;4973797;28;6968;-78
2022/07/12 08:37:41;;;;;;;;;;;;;;;34.60;30.99;101419.50;4949131;28;6960;-78
2022/07/12 08:40:07;;;;;;;;;;;;;;;34.63;30.36;101408.72;4956925;28;6818;-78
2022/07/12 08:42:33;;;;;;;;;;;;;;;34.80;30.39;101415.19;4946074;28;6777;-78
2022/07/12 08:44:59;;;;;;;;;;;;;;;35.02;30.08;101407.25;4960347;28;7287;-78
2022/07/12 08:47:25;;;;;;;;;;;;;;;35.22;30.24;101405.63;4961852;28;6988;-78
2022/07/12 08:50:10;;;;;;;;;;;;;;;35.41;30.10;101405.72;4959257;28;6799;-78
2022/07/12 08:52:46;;;;;;;;;;;;;;;35.50;29.92;101400.00;4970444;28;7345;-78
2022/07/12 08:55:18;;;;;;;;;;;;;;;35.71;29.66;101402.72;4948711;28;6875;-78
2022/07/12 08:57:44;;;;;;;;;;;;;;;35.93;28.94;101397.34;4969306;28;7200;-78
2022/07/12 09:00:11;;;;;;;;;;;;;;;36.18;29.17;101392.75;4959066;28;6788;-78
2022/07/12 09:03:07;;;;;;;;;;;;;;;36.48;27.92;101397.63;4975581;28;6948;-79
2022/07/12 09:05:34;;;;;;;;;;;;;;;36.59;28.45;101389.16;4939270;28;8059;-79
2022/07/12 09:08:07;;;;;;;;;;;;;;;36.78;27.43;101395.38;4965632;28;7184;-79
2022/07/12 09:10:34;;;;;;;;;;;;;;;37.07;27.41;101392.25;4944696;28;6875;-79
2022/07/12 09:13:00;;;;;;;;;;;;;;;37.41;26.83;101384.38;4974251;28;8071;-78
2022/07/12 09:15:29;;;;;;;;;;;;;;;37.65;26.21;101385.84;4973503;28;6776;-78
2022/07/12 09:18:13;;;;;;;;;;;;;;;37.62;25.81;101387.81;4949112;28;7162;-78
2022/07/12 09:20:40;;;;;;;;;;;;;;;37.44;25.67;101393.09;4948818;28;7719;-78
2022/07/12 09:23:10;;;;;;;;;;;;;;;37.32;25.45;101399.94;4975481;28;7193;-78
2022/07/12 09:25:38;;;;;;;;;;;;;;;37.30;25.80;101396.47;4944460;28;7059;-78
2022/07/12 09:28:07;;;;;;;;;;;;;;;37.48;25.61;101393.81;4942770;28;8100;-79
2022/07/12 09:30:37;;;;;;;;;;;;;;;37.84;25.50;101389.34;4942402;28;7041;-78
2022/07/12 09:36:12;;;;;;;;;;;;;;;38.76;24.45;101398.78;4949036;28;7529;-78
2022/07/12 09:38:49;;;;;;;;;;;;;;;38.97;23.76;101393.19;4962955;28;7175;-78
2022/07/12 09:41:21;;;;;;;;;;;;;;;39.21;23.75;101392.69;4944183;28;7203;-78
2022/07/12 09:43:47;;;;;;;;;;;;;;;39.44;23.31;101399.44;4934440;28;7231;-78
2022/07/12 09:46:17;;;;;;;;;;;;;;;39.65;23.07;101396.44;4943222;28;6990;-79
2022/07/12 09:48:45;;;;;;;;;;;;;;;39.77;22.92;101400.19;4958326;28;7000;-79
2022/07/12 09:51:17;;;;;;;;;;;;;;;39.88;22.77;101411.16;4944912;28;6800;-78
2022/07/12 09:53:51;;;;;;;;;;;;;;;40.01;22.97;101405.06;4927594;28;7619;-78
2022/07/12 09:56:22;;;;;;;;;;;;;;;40.11;22.38;101409.75;4964298;28;7019;-79
2022/07/12 09:58:53;;;;;;;;;;;;;;;40.19;22.58;101409.28;4975184;28;6846;-79
2022/07/12 10:01:20;;;;;;;;;;;;;;;40.25;22.43;101406.19;4947427;28;6976;-78
2022/07/12 10:03:47;;;;;;;;;;;;;;;40.39;22.35;101409.88;4933729;28;7263;-78
2022/07/12 10:06:22;;;;;;;;;;;;;;;40.67;22.14;101413.50;4965267;28;7163;-78
2022/07/12 10:08:48;;;;;;;;;;;;;;;41.04;22.05;101415.63;4960388;28;7205;-78
2022/07/12 10:11:14;;;;;;;;;;;;;;;41.38;21.87;101410.69;4951608;28;7272;-78
2022/07/12 10:13:40;;;;;;;;;;;;;;;41.74;21.28;101406.50;4961561;28;6935;-78
2022/07/12 10:16:13;;;;;;;;;;;;;;;41.97;20.72;101405.84;4975814;28;7064;-78
2022/07/12 10:18:39;;;;;;;;;;;;;;;42.03;20.19;101408.97;4949700;28;6982;-80
2022/07/12 10:21:23;;;;;;;;;;;;;;;42.02;19.73;101401.03;4933620;28;9342;-79
2022/07/12 10:23:49;;;;;;;;;;;;;;;42.03;20.32;101394.66;4948506;28;7254;-79
2022/07/12 10:26:14;;;;;;;;;;;;;;;42.12;20.12;101391.34;4976523;28;7159;-80
2022/07/12 10:29:19;;;;;;;;;;;;;;;42.38;19.79;101402.06;4945285;28;6971;-79
2022/07/12 10:31:46;;;;;;;;;;;;;;;42.56;19.68;101396.34;4938257;28;7184;-80
2022/07/12 10:34:24;;;;;;;;;;;;;;;42.80;19.26;101398.22;4930433;28;8616;-80
2022/07/12 10:36:55;;;;;;;;;;;;;;;43.00;19.22;101396.75;4931841;28;7114;-80
2022/07/12 10:39:26;;;;;;;;;;;;;;;43.11;19.02;101395.94;4959698;28;6938;-79
2022/07/12 10:42:05;;;;;;;;;;;;;;;43.13;18.59;101399.38;4933177;28;7051;-79
2022/07/12 10:44:39;;;;;;;;;;;;;;;42.93;18.81;101387.38;4962533;28;7399;-79
2022/07/12 10:47:08;;;;;;;;;;;;;;;42.81;18.36;101391.84;4959966;28;6990;-79
2022/07/12 10:49:35;;;;;;;;;;;;;;;42.59;18.86;101396.97;4946526;28;6986;-79
2022/07/12 10:52:10;;;;;;;;;;;;;;;42.26;18.98;101398.44;4945405;28;6784;-79
2022/07/12 10:54:47;;;;;;;;;;;;;;;42.02;19.14;101392.94;4975026;28;6980;-79
2022/07/12 10:57:13;;;;;;;;;;;;;;;41.97;19.36;101398.66;4957133;28;7002;-79
2022/07/12 10:59:38;;;;;;;;;;;;;;;41.99;19.81;101393.16;4946034;28;6796;-78
2022/07/12 11:02:05;;;;;;;;;;;;;;;42.09;19.55;101393.41;4959840;28;6940;-78
2022/07/12 11:04:33;;;;;;;;;;;;;;;42.20;20.05;101388.09;4963089;28;6788;-79
2022/07/12 11:07:01;;;;;;;;;;;;;;;42.48;19.57;101381.56;4975914;28;6968;-79
2022/07/12 11:09:28;;;;;;;;;;;;;;;42.73;19.37;101376.22;4940077;28;6962;-79
2022/07/12 11:11:54;;;;;;;;;;;;;;;42.90;18.84;101377.69;4958356;28;7145;-79
2022/07/12 11:14:32;;;;;;;;;;;;;;;42.98;18.71;101375.31;4941621;28;6920;-79
2022/07/12 11:16:59;;;;;;;;;;;;;;;43.05;18.68;101374.81;4933090;28;7037;-79
2022/07/12 11:19:28;;;;;;;;;;;;;;;43.06;18.24;101372.03;4956943;28;6978;-79
2022/07/12 11:21:58;;;;;;;;;;;;;;;43.15;17.99;101374.03;4951102;28;7082;-79
2022/07/12 11:24:30;;;;;;;;;;;;;;;43.42;17.78;101369.34;4947698;28;6812;-80
2022/07/12 11:26:57;;;;;;;;;;;;;;;43.62;17.41;101369.63;4941282;28;7266;-79
2022/07/12 11:29:25;;;;;;;;;;;;;;;43.81;17.28;101366.38;4945366;28;7226;-79
2022/07/12 11:32:07;;;;;;;;;;;;;;;43.77;16.93;101365.78;4951090;28;6991;-79
2022/07/12 11:34:34;;;;;;;;;;;;;;;43.60;16.47;101358.94;4947264;28;7106;-80
2022/07/12 11:37:01;;;;;;;;;;;;;;;43.30;16.61;101363.03;4955844;28;7274;-80
2022/07/12 11:39:39;;;;;;;;;;;;;;;42.61;16.90;101359.16;4945741;28;6792;-80
2022/07/12 11:42:10;;;;;;;;;;;;;;;42.02;17.42;101360.66;4975546;28;6941;-79
2022/07/12 11:44:51;;;;;;;;;;;;;;;41.71;17.93;101357.41;4956305;28;6997;-80
2022/07/12 11:47:20;;;;;;;;;;;;;;;41.67;18.65;101351.38;4930113;28;7158;-79
2022/07/12 11:49:55;;;;;;;;;;;;;;;41.87;18.98;101350.00;4948645;28;7076;-79
2022/07/12 11:52:24;;;;;;;;;;;;;;;42.19;18.71;101340.63;4948967;28;7265;-79
2022/07/12 11:54:52;;;;;;;;;;;;;;;42.42;17.79;101347.03;4953344;28;8745;-79
2022/07/12 11:57:23;;;;;;;;;;;;;;;42.48;17.82;101345.69;4965077;28;6792;-79
2022/07/12 11:59:49;;;;;;;;;;;;;;;42.53;18.04;101346.25;4949376;28;6796;-80
2022/07/12 12:02:16;;;;;;;;;;;;;;;42.55;18.22;101347.00;4941430;28;6944;-79
2022/07/12 12:04:54;;;;;;;;;;;;;;;42.56;17.44;101340.66;4977131;28;7044;-79
2022/07/12 12:07:23;;;;;;;;;;;;;;;42.63;17.63;101334.78;4952924;28;6871;-79
2022/07/12 12:10:14;;;;;;;;;;;;;;;42.67;17.97;101337.13;4949202;28;7023;-79
2022/07/12 12:12:52;;;;;;;;;;;;;;;42.76;17.57;101332.91;4970872;28;7667;-79
2022/07/12 12:15:20;;;;;;;;;;;;;;;42.71;17.31;101333.25;4962772;28;8434;-79
2022/07/12 12:17:57;;;;;;;;;;;;;;;42.64;17.77;101332.00;4962395;28;7328;-79
2022/07/12 12:20:36;;;;;;;;;;;;;;;42.60;17.69;101335.91;4971284;28;7275;-79
2022/07/12 12:23:04;;;;;;;;;;;;;;;42.51;17.47;101331.19;4974813;28;7369;-79
2022/07/12 12:25:32;;;;;;;;;;;;;;;42.34;17.08;101325.19;4928967;28;6900;-79
2022/07/12 12:28:04;;;;;;;;;;;;;;;42.03;16.80;101320.16;4930182;28;6986;-79
2022/07/12 12:30:33;;;;;;;;;;;;;;;41.62;17.01;101319.38;4942694;28;6905;-79
2022/07/12 12:33:06;;;;;;;;;;;;;;;41.28;17.78;101321.75;4946034;28;7353;-79
2022/07/12 12:35:38;;;;;;;;;;;;;;;41.18;18.35;101317.94;4943589;28;6812;-79
2022/07/12 12:38:14;;;;;;;;;;;;;;;41.09;17.95;101328.34;4944191;28;6824;-79
2022/07/12 12:40:50;;;;;;;;;;;;;;;40.90;17.79;101325.19;4947876;28;7486;-79
2022/07/12 12:43:20;;;;;;;;;;;;;;;40.75;18.49;101319.81;4972642;28;7283;-79
2022/07/12 12:45:55;;;;;;;;;;;;;;;40.76;18.69;101320.69;4943946;28;7263;-79
2022/07/12 12:48:27;;;;;;;;;;;;;;;40.65;18.45;101316.88;4948699;28;7436;-79
2022/07/12 12:51:06;;;;;;;;;;;;;;;40.51;18.65;101325.84;4948655;28;6812;-79
2022/07/12 12:53:33;;;;;;;;;;;;;;;40.43;18.31;101320.09;4975232;28;6864;-79
2022/07/12 12:55:59;;;;;;;;;;;;;;;40.49;17.39;101317.03;4956952;28;8622;-79
2022/07/12 12:58:25;;;;;;;;;;;;;;;40.58;17.32;101320.09;4978340;28;7272;-79
2022/07/12 13:00:54;;;;;;;;;;;;;;;40.59;17.24;101321.81;4929007;28;6983;-79
2022/07/12 13:03:23;;;;;;;;;;;;;;;40.51;17.29;101315.09;4943782;28;6992;-79